Time;durP1;ratioP1;P1;durP2;ratioP2;P2;SDS_P1;SDS_P2;PMS_P1;PMS_P2;Temp;Humidity;BMP_temperature;BMP_pressure;BME280_temperature;BME280_humidity;BME280_pressure;Samples;Min_cycle;Max_cycle;Signal;HPM_P1;HPM_P2
2021/10/07 00:00:47;;;;;;;18.08;2.85;;;;;;;11.62;100.00;102519.88;5095720;28;20510;-74
2021/10/07 00:03:12;;;;;;;14.68;2.53;;;;;;;11.56;100.00;102515.81;5096313;28;20106;-73
2021/10/07 00:05:37;;;;;;;20.33;3.10;;;;;;;11.53;100.00;102517.84;5095664;28;20020;-73
2021/10/07 00:08:03;;;;;;;18.95;3.38;;;;;;;11.49;100.00;102522.50;5096446;28;20487;-73
2021/10/07 00:10:29;;;;;;;19.35;2.70;;;;;;;11.45;100.00;102529.03;5096339;28;20039;-73
2021/10/07 00:12:55;;;;;;;16.00;2.80;;;;;;;11.41;100.00;102531.03;5095518;28;20062;-73
2021/10/07 00:15:20;;;;;;;19.83;2.95;;;;;;;11.41;100.00;102533.69;5096147;28;20097;-73
2021/10/07 00:17:46;;;;;;;13.30;2.47;;;;;;;11.42;100.00;102531.88;5095436;28;20031;-73
2021/10/07 00:20:14;;;;;;;14.40;2.40;;;;;;;11.42;100.00;102529.22;5095652;28;20076;-74
2021/10/07 00:22:40;;;;;;;14.63;2.40;;;;;;;11.42;100.00;102531.88;5095043;28;20085;-74
2021/10/07 00:25:10;;;;;;;10.40;2.55;;;;;;;11.42;100.00;102535.41;5095908;28;20066;-73
2021/10/07 00:27:35;;;;;;;14.68;2.33;;;;;;;11.43;100.00;102529.09;5095590;28;20031;-73
2021/10/07 00:30:12;;;;;;;15.98;3.03;;;;;;;11.43;100.00;102541.59;5095731;28;20471;-73
2021/10/07 00:32:43;;;;;;;21.67;3.45;;;;;;;11.42;100.00;102540.75;5095261;28;20055;-73
2021/10/07 00:40:04;;;;;;;23.00;2.97;;;;;;;11.38;100.00;102541.91;5095604;28;20564;-73
2021/10/07 00:42:29;;;;;;;18.20;3.25;;;;;;;11.37;100.00;102532.19;5095273;28;20028;-73
2021/10/07 00:44:55;;;;;;;20.10;3.60;;;;;;;11.37;100.00;102534.00;5095182;28;20483;-73
2021/10/07 00:47:20;;;;;;;19.35;3.33;;;;;;;11.35;100.00;102538.59;5095232;28;20125;-73
2021/10/07 00:49:45;;;;;;;26.25;3.88;;;;;;;11.35;100.00;102539.44;5094553;28;20036;-73
2021/10/07 00:52:15;;;;;;;23.85;3.67;;;;;;;11.40;100.00;102539.97;5095653;28;20024;-73
2021/10/07 00:54:41;;;;;;;17.42;2.80;;;;;;;11.46;100.00;102538.72;5094761;28;20031;-74
2021/10/07 00:57:09;;;;;;;25.48;3.30;;;;;;;11.46;100.00;102546.72;5076837;28;20110;-74
2021/10/07 00:59:34;;;;;;;26.33;3.70;;;;;;;11.46;100.00;102552.03;5094286;28;20095;-73
2021/10/07 01:02:05;;;;;;;21.40;3.20;;;;;;;11.45;100.00;102555.69;5094907;28;20294;-74
2021/10/07 01:04:30;;;;;;;23.20;3.15;;;;;;;11.41;100.00;102556.84;5095130;28;20028;-74
2021/10/07 01:06:56;;;;;;;22.85;3.17;;;;;;;11.38;100.00;102557.91;5094435;28;20440;-74
2021/10/07 01:09:21;;;;;;;18.85;2.85;;;;;;;11.38;100.00;102557.91;5094792;28;20024;-73
2021/10/07 01:11:46;;;;;;;19.85;3.28;;;;;;;11.39;100.00;102556.94;5094524;28;20032;-74
2021/10/07 01:14:12;;;;;;;20.67;3.17;;;;;;;11.39;100.00;102562.28;5095116;28;20031;-74
2021/10/07 01:16:37;;;;;;;26.40;3.60;;;;;;;11.40;100.00;102565.78;5095044;28;20039;-73
2021/10/07 01:19:03;;;;;;;22.25;3.45;;;;;;;11.42;100.00;102563.88;5094170;28;20047;-74
2021/10/07 01:21:28;;;;;;;19.85;3.10;;;;;;;11.41;100.00;102568.34;5094990;28;20028;-74
2021/10/07 01:23:53;;;;;;;26.02;3.38;;;;;;;11.41;100.00;102563.03;5094154;28;20031;-74
2021/10/07 01:26:21;;;;;;;17.90;3.25;;;;;;;11.41;100.00;102568.34;5094753;28;20465;-74
2021/10/07 01:28:49;;;;;;;24.17;3.45;;;;;;;11.40;100.00;102569.28;5094198;28;20098;-74
2021/10/07 01:31:15;;;;;;;19.23;2.70;;;;;;;11.41;100.00;102572.84;5094662;28;20146;-74
2021/10/07 01:33:40;;;;;;;21.77;4.00;;;;;;;11.38;100.00;102581.03;5094571;28;20063;-74
2021/10/07 01:36:06;;;;;;;14.60;2.70;;;;;;;11.31;100.00;102575.25;5094035;28;20035;-73
2021/10/07 01:38:32;;;;;;;19.63;3.25;;;;;;;11.26;100.00;102585.38;5094708;28;20445;-74
2021/10/07 01:40:57;;;;;;;18.23;3.03;;;;;;;11.25;100.00;102580.97;5093614;28;20032;-74
2021/10/07 01:43:24;;;;;;;20.52;3.10;;;;;;;11.25;100.00;102586.31;5094257;28;20036;-73
2021/10/07 01:45:50;;;;;;;19.92;3.92;;;;;;;11.25;100.00;102584.50;5093766;28;20119;-74
2021/10/07 01:48:17;;;;;;;25.52;3.88;;;;;;;11.28;100.00;102594.94;5094302;28;20055;-74
2021/10/07 01:50:42;;;;;;;23.95;3.40;;;;;;;11.29;100.00;102588.66;5094245;28;20457;-73
2021/10/07 01:53:08;;;;;;;13.90;3.10;;;;;;;11.32;100.00;102595.63;5093374;28;20067;-74
2021/10/07 01:55:33;;;;;;;16.55;3.63;;;;;;;11.32;100.00;102594.78;5094143;28;20077;-74
2021/10/07 01:57:59;;;;;;;20.13;3.20;;;;;;;11.34;100.00;102595.50;5093559;28;20088;-74
2021/10/07 02:00:24;;;;;;;18.90;3.38;;;;;;;11.33;100.00;102607.13;5094124;28;20463;-74
2021/10/07 02:02:50;;;;;;;22.10;3.45;;;;;;;11.34;100.00;102601.69;5093372;28;20024;-74
2021/10/07 02:05:16;;;;;;;17.95;2.95;;;;;;;11.35;100.00;102608.75;5093961;28;20115;-74
2021/10/07 02:07:41;;;;;;;17.60;3.75;;;;;;;11.36;100.00;102605.13;5093895;28;20111;-73
2021/10/07 02:10:15;;;;;;;15.07;3.55;;;;;;;11.37;100.00;102611.31;5093194;28;20024;-74
2021/10/07 02:12:45;;;;;;;24.58;4.13;;;;;;;11.38;100.00;102607.69;5094061;28;20109;-73
2021/10/07 02:15:11;;;;;;;21.63;3.77;;;;;;;11.41;100.00;102607.47;5093244;28;20505;-74
2021/10/07 02:17:37;;;;;;;21.02;3.42;;;;;;;11.41;100.00;102607.47;5093796;28;20266;-73
2021/10/07 02:20:06;;;;;;;19.05;3.30;;;;;;;11.43;100.00;102618.88;5092954;28;20105;-74
2021/10/07 02:22:31;;;;;;;26.52;3.42;;;;;;;11.46;100.00;102618.69;5093306;28;20024;-74
2021/10/07 02:24:56;;;;;;;17.52;3.20;;;;;;;11.46;100.00;102618.69;5093123;28;20078;-74
2021/10/07 02:27:22;;;;;;;31.63;3.35;;;;;;;11.45;100.00;102617.00;5093642;28;20062;-73
2021/10/07 02:29:47;;;;;;;29.00;3.80;;;;;;;11.47;100.00;102623.06;5093557;28;20496;-72
2021/10/07 02:32:13;;;;;;;17.50;2.95;;;;;;;11.47;100.00;102620.41;5092919;28;20028;-74
2021/10/07 02:34:39;;;;;;;27.27;3.28;;;;;;;11.47;100.00;102620.41;5093170;28;20031;-73
2021/10/07 02:37:04;;;;;;;17.48;2.85;;;;;;;11.49;100.00;102621.16;5092725;28;20070;-74
2021/10/07 02:39:29;;;;;;;18.52;2.70;;;;;;;11.49;100.00;102620.31;5093360;28;20020;-74
2021/10/07 02:41:55;;;;;;;25.60;3.55;;;;;;;11.50;100.00;102630.00;5074132;28;20064;-74
2021/10/07 02:44:20;;;;;;;26.45;2.85;;;;;;;11.51;100.00;102621.91;5093353;28;20035;-73
2021/10/07 02:46:45;;;;;;;22.88;3.30;;;;;;;11.53;100.00;102621.81;5093356;28;20024;-73
2021/10/07 02:49:11;;;;;;;16.83;3.25;;;;;;;11.55;100.00;102625.22;5074586;28;20024;-73
2021/10/07 02:51:36;;;;;;;19.45;3.03;;;;;;;11.56;100.00;102625.13;5093162;28;20356;-73
2021/10/07 02:54:02;;;;;;;22.15;3.35;;;;;;;11.56;100.00;102625.13;5092314;28;20039;-74
2021/10/07 02:56:27;;;;;;;19.73;2.97;;;;;;;11.58;100.00;102628.53;5074715;28;20448;-74
2021/10/07 02:58:52;;;;;;;13.98;2.58;;;;;;;11.58;100.00;102635.69;5075047;28;20036;-74
2021/10/07 03:01:18;;;;;;;20.38;3.25;;;;;;;11.57;100.00;102631.28;5092174;28;20024;-73
2021/10/07 03:03:43;;;;;;;21.25;3.42;;;;;;;11.54;100.00;102629.72;5092823;28;20024;-73
2021/10/07 03:06:08;;;;;;;15.68;2.80;;;;;;;11.53;100.00;102628.00;5092430;28;20517;-73
2021/10/07 03:08:34;;;;;;;19.98;3.45;;;;;;;11.54;100.00;102629.72;5092918;28;20525;-73
2021/10/07 03:10:59;;;;;;;27.20;3.65;;;;;;;11.57;100.00;102640.16;5091997;28;20055;-74
2021/10/07 03:13:25;;;;;;;22.92;3.30;;;;;;;11.57;100.00;102631.28;5075021;28;20039;-74
2021/10/07 03:15:50;;;;;;;24.52;3.40;;;;;;;11.55;100.00;102636.72;5092825;28;20016;-73
2021/10/07 03:18:16;;;;;;;25.73;3.35;;;;;;;11.54;100.00;102632.38;5092067;28;20063;-74
2021/10/07 03:20:42;;;;;;;20.00;2.60;;;;;;;11.53;100.00;102638.66;5093069;28;20520;-74
2021/10/07 03:23:08;;;;;;;17.17;2.85;;;;;;;11.55;100.00;102643.88;5091640;28;20028;-74
2021/10/07 03:25:33;;;;;;;23.95;3.75;;;;;;;11.55;100.00;102647.38;5074621;28;20097;-73
2021/10/07 03:27:58;;;;;;;24.73;3.03;;;;;;;11.56;100.00;102645.59;5092057;28;20031;-74
2021/10/07 03:30:24;;;;;;;19.05;2.63;;;;;;;11.53;100.00;102648.47;5092707;28;20032;-74
2021/10/07 03:32:49;;;;;;;12.02;2.60;;;;;;;11.51;100.00;102648.56;5092751;28;20524;-74
2021/10/07 03:35:15;;;;;;;22.27;2.95;;;;;;;11.48;100.00;102656.78;5092052;28;20024;-74
2021/10/07 03:37:40;;;;;;;21.55;2.75;;;;;;;11.44;100.00;102660.59;5093219;28;20016;-74
2021/10/07 03:40:10;;;;;;;18.73;2.83;;;;;;;11.39;100.00;102663.56;5091924;28;20051;-74
2021/10/07 03:42:36;;;;;;;30.13;3.38;;;;;;;11.33;100.00;102663.97;5092651;28;20058;-74
2021/10/07 03:45:02;;;;;;;16.17;3.15;;;;;;;11.31;100.00;102662.34;5092497;28;20113;-74
2021/10/07 03:47:28;;;;;;;13.50;2.75;;;;;;;11.28;100.00;102664.22;5092733;28;20106;-74
2021/10/07 03:49:56;;;;;;;16.92;2.70;;;;;;;11.29;100.00;102671.28;5092937;28;20039;-74
2021/10/07 03:52:22;;;;;;;13.60;2.63;;;;;;;11.29;100.00;102665.94;5091692;28;20036;-74
2021/10/07 03:54:48;;;;;;;19.58;2.83;;;;;;;11.28;100.00;102672.22;5074710;28;20047;-74
2021/10/07 03:57:13;;;;;;;13.80;2.97;;;;;;;11.28;100.00;102674.88;5091865;28;20082;-74
2021/10/07 03:59:38;;;;;;;26.10;3.35;;;;;;;11.31;100.00;102678.31;5092340;28;20024;-74
2021/10/07 04:02:04;;;;;;;15.57;3.92;;;;;;;11.31;100.00;102678.31;5091718;28;20116;-74
2021/10/07 04:04:29;;;;;;;22.17;3.22;;;;;;;11.33;100.00;102685.28;5092310;28;20052;-74
2021/10/07 04:06:54;;;;;;;19.45;3.75;;;;;;;11.33;100.00;102690.59;5092319;28;20020;-74
2021/10/07 04:09:20;;;;;;;18.10;3.03;;;;;;;11.33;100.00;102693.28;5092060;28;20031;-74
2021/10/07 04:11:45;;;;;;;15.20;3.00;;;;;;;11.37;100.00;102694.75;5092444;28;20089;-74
2021/10/07 04:14:11;;;;;;;17.90;2.85;;;;;;;11.42;100.00;102692.66;5091619;28;20034;-74
2021/10/07 04:16:36;;;;;;;20.42;3.45;;;;;;;11.50;100.00;102697.50;5092473;28;20036;-74
2021/10/07 04:19:01;;;;;;;11.48;2.50;;;;;;;11.55;100.00;102707.84;5091983;28;20052;-74
2021/10/07 04:21:27;;;;;;;19.30;3.80;;;;;;;11.56;100.00;102704.25;5091447;28;20143;-74
2021/10/07 04:23:53;;;;;;;18.23;2.63;;;;;;;11.56;100.00;102704.25;5092076;28;20534;-74
2021/10/07 04:26:18;;;;;;;19.35;2.90;;;;;;;11.58;100.00;102702.31;5091460;28;20126;-74
2021/10/07 04:28:44;;;;;;;23.00;2.63;;;;;;;11.57;100.00;102701.47;5091908;28;20036;-74
2021/10/07 04:31:09;;;;;;;16.77;2.15;;;;;;;11.56;99.99;102705.09;5091175;28;20077;-75
2021/10/07 04:33:35;;;;;;;16.95;3.05;;;;;;;11.53;100.00;102707.97;5092225;28;20024;-74
2021/10/07 04:36:00;;;;;;;20.40;2.50;;;;;;;11.51;100.00;102709.00;5095539;28;20471;-73
2021/10/07 04:38:25;;;;;;;16.58;2.70;;;;;;;11.49;100.00;102708.25;5094623;28;20417;-74
2021/10/07 04:40:51;;;;;;;16.75;3.00;;;;;;;11.47;100.00;102705.69;5095450;28;20028;-74
2021/10/07 04:43:17;;;;;;;16.08;2.50;;;;;;;11.43;100.00;102701.50;5095094;28;20085;-73
2021/10/07 04:45:43;;;;;;;11.73;2.40;;;;;;;11.41;100.00;102704.28;5095321;28;20086;-74
2021/10/07 04:48:08;;;;;;;20.58;3.97;;;;;;;11.42;100.00;102713.13;5094966;28;20507;-74
2021/10/07 04:50:33;;;;;;;17.58;2.58;;;;;;;11.40;100.00;102717.69;5095542;28;20468;-73
2021/10/07 04:52:59;;;;;;;13.82;2.40;;;;;;;11.37;100.00;102716.09;5095584;28;20032;-76
2021/10/07 04:55:24;;;;;;;17.52;3.00;;;;;;;11.35;100.00;102709.16;5094774;28;20027;-73
2021/10/07 04:57:50;;;;;;;18.02;2.60;;;;;;;11.31;100.00;102715.63;5077247;28;20024;-76
2021/10/07 05:00:15;;;;;;;10.43;2.35;;;;;;;11.28;100.00;102722.00;5094424;28;20091;-73
2021/10/07 05:02:41;;;;;;;17.60;2.83;;;;;;;11.24;100.00;102721.34;5095291;28;20452;-76
2021/10/07 05:05:08;;;;;;;16.17;3.15;;;;;;;11.23;100.00;102714.31;5077231;28;20036;-73
2021/10/07 05:07:34;;;;;;;12.90;2.83;;;;;;;11.22;100.00;102719.75;5094531;28;20028;-74
2021/10/07 05:09:59;;;;;;;23.35;3.08;;;;;;;11.19;100.00;102711.94;5094884;28;20099;-74
2021/10/07 05:12:24;;;;;;;10.30;2.97;;;;;;;11.18;100.00;102720.88;5094400;28;20035;-73
2021/10/07 05:14:50;;;;;;;20.73;6.20;;;;;;;11.17;100.00;102727.19;5094665;28;20034;-76
2021/10/07 05:17:15;;;;;;;18.58;7.10;;;;;;;11.13;100.00;102726.50;5094277;28;20035;-75
2021/10/07 05:19:41;;;;;;;14.82;4.55;;;;;;;11.09;100.00;102732.97;5094611;28;20044;-74
2021/10/07 05:22:06;;;;;;;17.77;4.78;;;;;;;11.07;100.00;102729.56;5076577;28;20478;-74
2021/10/07 05:24:32;;;;;;;18.75;4.07;;;;;;;11.03;100.00;102731.56;5094050;28;20311;-74
2021/10/07 05:26:57;;;;;;;16.00;3.47;;;;;;;11.01;100.00;102741.44;5094727;28;20372;-74
2021/10/07 05:29:22;;;;;;;16.02;3.45;;;;;;;10.96;100.00;102745.34;5094014;28;20460;-74
2021/10/07 05:31:49;;;;;;;20.80;3.08;;;;;;;10.91;100.00;102753.63;5094495;28;20027;-73
2021/10/07 05:34:15;;;;;;;21.55;3.03;;;;;;;10.82;100.00;102752.38;5094016;28;20046;-75
2021/10/07 05:36:40;;;;;;;14.30;3.40;;;;;;;10.71;100.00;102755.69;5094614;28;20066;-74
2021/10/07 05:39:06;;;;;;;17.67;3.58;;;;;;;10.59;100.00;102753.78;5094475;28;20478;-74
2021/10/07 05:41:31;;;;;;;15.07;3.20;;;;;;;10.44;100.00;102755.56;5093974;28;20039;-74
2021/10/07 05:43:56;;;;;;;14.20;3.60;;;;;;;10.29;100.00;102754.63;5076098;28;20028;-74
2021/10/07 05:46:22;;;;;;;13.65;3.03;;;;;;;10.13;100.00;102759.97;5093077;28;20028;-74
2021/10/07 05:48:47;;;;;;;23.23;4.25;;;;;;;10.01;100.00;102758.03;5094031;28;20369;-74
2021/10/07 05:51:13;;;;;;;18.95;3.97;;;;;;;9.89;100.00;102756.94;5094308;28;20482;-74
2021/10/07 05:53:38;;;;;;;14.45;3.80;;;;;;;9.78;100.00;102754.03;5093596;28;20486;-73
2021/10/07 05:56:06;;;;;;;16.42;4.22;;;;;;;9.67;100.00;102763.47;5094201;28;20107;-73
2021/10/07 05:58:31;;;;;;;13.07;4.30;;;;;;;9.57;100.00;102762.28;5089676;28;20336;-73
2021/10/07 06:00:57;;;;;;;20.23;5.78;;;;;;;9.50;100.00;102760.91;5091192;28;20081;-73
2021/10/07 06:03:22;;;;;;;15.88;4.30;;;;;;;9.43;100.00;102757.72;5090708;28;20062;-74
2021/10/07 06:05:47;;;;;;;15.32;4.63;;;;;;;9.36;100.00;102767.00;5073052;28;20036;-72
2021/10/07 06:08:13;;;;;;;19.98;5.00;;;;;;;9.30;100.00;102761.97;5091294;28;20055;-73
2021/10/07 06:10:38;;;;;;;18.02;6.63;;;;;;;9.24;100.00;102765.84;5090373;28;20047;-73
2021/10/07 06:13:04;;;;;;;17.38;8.48;;;;;;;9.18;100.00;102774.13;5090912;28;20031;-73
2021/10/07 06:15:29;;;;;;;24.95;9.02;;;;;;;9.14;100.00;102777.91;5090401;28;20040;-73
2021/10/07 06:17:55;;;;;;;20.55;7.22;;;;;;;9.10;100.00;102777.19;5091025;28;20481;-73
2021/10/07 06:20:30;;;;;;;16.48;5.60;;;;;;;9.07;100.00;102787.16;5090196;28;20056;-73
2021/10/07 06:22:57;;;;;;;15.10;5.70;;;;;;;9.02;100.00;102778.53;5090540;28;20046;-73
2021/10/07 06:25:22;;;;;;;18.20;6.07;;;;;;;8.98;100.00;102786.69;5090532;28;20039;-73
2021/10/07 06:27:50;;;;;;;19.85;5.88;;;;;;;8.97;100.00;102784.09;5091116;28;20024;-72
2021/10/07 06:30:16;;;;;;;16.13;5.88;;;;;;;8.96;100.00;102793.88;5090824;28;20487;-75
2021/10/07 06:32:46;;;;;;;15.43;5.82;;;;;;;8.98;100.00;102794.63;5090151;28;20028;-74
2021/10/07 06:35:13;;;;;;;18.88;6.75;;;;;;;8.99;100.00;102799.03;5090093;28;20020;-74
2021/10/07 06:37:39;;;;;;;15.48;5.70;;;;;;;9.00;100.00;102797.22;5089735;28;20139;-74
2021/10/07 06:40:05;;;;;;;16.08;6.45;;;;;;;9.01;100.00;102804.25;5090647;28;20028;-74
2021/10/07 06:42:31;;;;;;;16.92;5.80;;;;;;;9.00;100.00;102803.41;5089860;28;20028;-75
2021/10/07 06:44:56;;;;;;;15.05;6.70;;;;;;;9.00;100.00;102810.50;5090343;28;20052;-72
2021/10/07 06:47:22;;;;;;;14.07;5.78;;;;;;;9.01;100.00;102809.56;5089730;28;20043;-75
2021/10/07 06:49:47;;;;;;;17.83;6.18;;;;;;;9.01;100.00;102814.88;5090653;28;20024;-73
2021/10/07 06:52:13;;;;;;;15.85;7.15;;;;;;;9.02;100.00;102813.06;5090399;28;20032;-73
2021/10/07 06:54:38;;;;;;;22.83;7.65;;;;;;;9.01;100.00;102817.53;5087479;28;20071;-73
2021/10/07 06:57:03;;;;;;;19.70;7.45;;;;;;;9.04;100.00;102822.69;5087272;28;20028;-73
2021/10/07 06:59:29;;;;;;;17.60;7.60;;;;;;;9.08;100.00;102828.69;5091944;28;20019;-73
2021/10/07 07:01:54;;;;;;;18.13;8.38;;;;;;;9.11;100.00;102828.53;5092729;28;20032;-73
2021/10/07 07:04:19;;;;;;;15.27;8.02;;;;;;;9.15;100.00;102832.72;5092835;28;20030;-73
2021/10/07 07:06:45;;;;;;;18.60;7.38;;;;;;;9.20;100.00;102840.47;5092185;28;20111;-73
2021/10/07 07:09:12;;;;;;;19.30;7.93;;;;;;;9.24;100.00;102839.34;5092668;28;20028;-73
2021/10/07 07:11:37;;;;;;;17.80;8.35;;;;;;;9.28;100.00;102841.75;5092469;28;20052;-72
2021/10/07 07:14:05;;;;;;;26.80;8.52;;;;;;;9.29;100.00;102845.28;5092777;28;20417;-74
2021/10/07 07:16:31;;;;;;;23.17;8.38;;;;;;;9.31;100.00;102843.41;5092158;28;20020;-73
2021/10/07 07:18:56;;;;;;;23.20;8.73;;;;;;;9.35;100.00;102847.63;5093068;28;20035;-72
2021/10/07 07:21:23;;;;;;;17.35;7.97;;;;;;;9.41;100.00;102846.44;5093066;28;20464;-72
2021/10/07 07:23:52;;;;;;;30.33;10.05;;;;;;;9.48;100.00;102854.00;5092010;28;20020;-72
2021/10/07 07:26:17;;;;;;;29.00;11.35;;;;;;;9.53;100.00;102854.59;5092572;28;20024;-71
2021/10/07 07:28:42;;;;;;;31.02;10.90;;;;;;;9.63;100.00;102854.97;5092012;28;20040;-72
2021/10/07 07:31:08;;;;;;;40.00;12.35;;;;;;;9.76;100.00;102856.94;5092277;28;20035;-72
2021/10/07 07:33:33;;;;;;;29.95;11.73;;;;;;;9.92;100.00;102855.16;5091705;28;20452;-73
2021/10/07 07:35:58;;;;;;;32.63;11.82;;;;;;;10.11;100.00;102857.63;5092416;28;20028;-72
2021/10/07 07:38:24;;;;;;;35.72;11.88;;;;;;;10.24;100.00;102863.97;5092544;28;20405;-72
2021/10/07 07:40:49;;;;;;;32.05;12.52;;;;;;;10.41;100.00;102870.16;5091970;28;20035;-72
2021/10/07 07:43:19;;;;;;;33.85;11.65;;;;;;;10.53;100.00;102869.44;5092501;28;20032;-72
2021/10/07 07:45:49;;;;;;;30.27;11.50;;;;;;;10.65;100.00;102878.53;5091619;28;20097;-72
2021/10/07 07:48:15;;;;;;;35.90;11.85;;;;;;;10.76;100.00;102877.88;5092679;28;20501;-72
2021/10/07 07:50:41;;;;;;;37.70;12.07;;;;;;;10.91;100.00;102885.00;5092597;28;20028;-73
2021/10/07 07:53:06;;;;;;;34.42;12.07;;;;;;;11.13;100.00;102889.00;5092480;28;20081;-72
2021/10/07 07:55:31;;;;;;;36.60;12.38;;;;;;;11.39;100.00;102889.22;5091840;28;20375;-72
2021/10/07 07:57:57;;;;;;;43.65;13.63;;;;;;;11.63;100.00;102885.06;5092302;28;20020;-73
2021/10/07 08:00:22;;;;;;;30.88;11.82;;;;;;;11.89;100.00;102887.03;5092658;28;20116;-73
2021/10/07 08:02:47;;;;;;;32.38;12.73;;;;;;;12.12;100.00;102888.22;5091404;28;20024;-73
2021/10/07 08:05:14;;;;;;;31.67;11.50;;;;;;;12.37;100.00;102897.31;5092217;28;20440;-73
2021/10/07 08:07:40;;;;;;;26.65;9.93;;;;;;;12.53;100.00;102896.19;5091787;28;20081;-74
2021/10/07 08:10:06;;;;;;;36.90;8.90;;;;;;;12.65;100.00;102896.34;5096434;28;20115;-74
2021/10/07 08:12:33;;;;;;;27.77;7.43;;;;;;;12.74;100.00;102901.06;5078175;28;20105;-74
2021/10/07 08:15:00;;;;;;;30.25;6.53;;;;;;;12.84;100.00;102899.50;5096067;28;20039;-74
2021/10/07 08:17:26;;;;;;;27.67;6.47;;;;;;;12.94;100.00;102899.72;5096260;28;20035;-74
2021/10/07 08:19:51;;;;;;;24.98;5.57;;;;;;;13.02;100.00;102902.75;5095521;28;20044;-74
2021/10/07 08:22:17;;;;;;;20.25;4.38;;;;;;;13.15;100.00;102901.88;5077931;28;20035;-74
2021/10/07 08:24:42;;;;;;;23.55;4.50;;;;;;;13.29;100.00;102903.63;5095036;28;20136;-74
2021/10/07 08:27:08;;;;;;;23.23;4.88;;;;;;;13.48;100.00;102904.06;5095972;28;20443;-74
2021/10/07 08:29:33;;;;;;;26.88;4.78;;;;;;;13.66;100.00;102906.41;5096028;28;20031;-74
2021/10/07 08:31:59;;;;;;;20.85;3.78;;;;;;;13.80;99.57;102911.63;5095244;28;20475;-74
2021/10/07 08:34:24;;;;;;;13.48;3.22;;;;;;;13.95;98.95;102912.34;5095429;28;20123;-74
2021/10/07 08:36:51;;;;;;;21.05;4.40;;;;;;;14.05;96.13;102904.53;5095489;28;20035;-75
2021/10/07 08:39:17;;;;;;;14.10;3.72;;;;;;;14.16;95.50;102911.75;5095648;28;20039;-74
2021/10/07 08:41:45;;;;;;;17.92;3.05;;;;;;;14.23;92.46;102913.03;5094695;28;20040;-74
2021/10/07 08:44:13;;;;;;;14.15;3.38;;;;;;;14.38;90.31;102916.41;5095566;28;20028;-74
2021/10/07 08:46:40;;;;;;;22.10;3.47;;;;;;;14.52;92.03;102926.91;5095026;28;20070;-75
2021/10/07 08:49:07;;;;;;;17.42;3.60;;;;;;;14.61;92.03;102928.97;5095567;28;20445;-75
2021/10/07 08:51:33;;;;;;;16.83;2.90;;;;;;;14.60;84.54;102924.53;5095166;28;20460;-74
2021/10/07 08:53:59;;;;;;;13.63;3.05;;;;;;;14.69;87.70;102931.06;5094910;28;20046;-75
2021/10/07 08:56:25;;;;;;;23.35;3.22;;;;;;;14.77;88.61;102934.00;5095132;28;20032;-74
2021/10/07 08:58:51;;;;;;;11.80;2.67;;;;;;;14.84;89.99;102934.41;5094782;28;20026;-75
2021/10/07 09:01:35;;;;;;;18.40;2.50;;;;;;;14.85;89.87;102935.25;5095545;28;20106;-75
2021/10/07 09:04:25;;;;;;;10.50;2.63;;;;;;;14.83;86.88;102932.69;5094579;28;20020;-75
2021/10/07 09:07:05;;;;;;;12.25;2.38;;;;;;;14.85;82.72;102929.91;5078037;28;20110;-75
2021/10/07 09:09:32;;;;;;;11.82;2.80;;;;;;;14.89;83.99;102924.19;5095253;28;20034;-74
2021/10/07 09:12:03;;;;;;;14.93;2.30;;;;;;;14.98;85.07;102933.34;5094058;28;20028;-74
2021/10/07 09:14:31;;;;;;;7.90;2.22;;;;;;;15.02;83.28;102934.84;5095004;28;20051;-74
2021/10/07 09:16:58;;;;;;;18.63;3.15;;;;;;;15.11;85.61;102931.44;5094091;28;20412;-74
2021/10/07 09:19:25;;;;;;;8.82;2.30;;;;;;;15.22;84.77;102935.97;5094460;28;20052;-74
2021/10/07 09:21:52;;;;;;;9.43;2.10;;;;;;;15.37;82.54;102939.28;5093759;28;20063;-74
2021/10/07 09:24:57;;;;;;;13.85;2.22;;;;;;;15.44;83.37;102937.00;5094755;28;20016;-74
2021/10/07 09:27:30;;;;;;;12.73;2.60;;;;;;;15.44;80.13;102929.78;5094793;28;20119;-74
2021/10/07 09:30:02;;;;;;;9.25;2.42;;;;;;;15.39;82.46;102932.00;5093738;28;20359;-74
2021/10/07 09:32:34;;;;;;;20.25;3.13;;;;;;;15.42;80.94;102938.94;5094559;28;20024;-74
2021/10/07 09:35:02;;;;;;;14.18;2.53;;;;;;;15.42;78.68;102936.25;5094084;28;20020;-74
2021/10/07 09:37:42;;;;;;;12.70;2.30;;;;;;;15.36;80.75;102934.91;5094242;28;20039;-74
2021/10/07 09:40:09;;;;;;;10.52;2.05;;;;;;;15.34;78.58;102935.00;5093909;28;20031;-74
2021/10/07 09:42:40;;;;;;;13.48;2.55;;;;;;;15.27;82.97;102931.13;5094344;28;20035;-74
2021/10/07 09:45:15;;;;;;;17.88;2.50;;;;;;;15.33;85.58;102927.97;5093847;28;20032;-75
2021/10/07 09:47:47;;;;;;;10.02;2.00;;;;;;;16.90;78.56;102930.53;5094421;28;20028;-74
2021/10/07 09:50:28;;;;;;;12.68;2.40;;;;;;;18.89;68.33;102922.03;5094384;28;20396;-75
2021/10/07 09:53:08;;;;;;;14.55;2.20;;;;;;;20.91;56.38;102924.00;5093809;28;20056;-75
2021/10/07 09:55:44;;;;;;;13.27;2.15;;;;;;;22.34;54.64;102924.41;5094280;28;20027;-75
2021/10/07 09:58:12;;;;;;;11.93;2.38;;;;;;;23.65;51.26;102928.03;5093609;28;20028;-75
2021/10/07 10:00:43;;;;;;;12.82;2.25;;;;;;;24.57;46.24;102925.47;5094186;28;20106;-75
2021/10/07 10:03:10;;;;;;;10.18;2.45;;;;;;;25.65;43.68;102920.69;5093647;28;20086;-75
2021/10/07 10:05:38;;;;;;;7.32;2.00;;;;;;;26.12;43.07;102923.97;5094150;28;20020;-75
2021/10/07 10:08:05;;;;;;;7.97;2.10;;;;;;;26.98;39.59;102919.56;5093367;28;20032;-75
2021/10/07 10:10:32;;;;;;;11.02;2.08;;;;;;;27.36;39.92;102920.03;5093987;28;20031;-75
2021/10/07 10:12:57;;;;;;;10.70;2.30;;;;;;;27.28;38.61;102920.19;5093387;28;20081;-76
2021/10/07 10:15:23;;;;;;;10.85;2.10;;;;;;;26.16;40.19;102916.28;5093827;28;20032;-75
2021/10/07 10:17:49;;;;;;;9.13;1.85;;;;;;;26.34;40.27;102921.28;5093619;28;20464;-77
2021/10/07 10:20:42;;;;;;;9.55;2.42;;;;;;;26.00;38.78;102926.38;5093784;28;20044;-75
2021/10/07 10:23:11;;;;;;;9.43;1.90;;;;;;;26.24;40.81;102921.59;5070714;28;20372;-76
2021/10/07 10:26:02;;;;;;;7.53;2.00;;;;;;;25.74;41.84;102918.69;5093706;28;20027;-75
2021/10/07 10:28:53;;;;;;;9.88;2.38;;;;;;;24.11;47.02;102929.00;5093724;28;20034;-75
2021/10/07 10:31:34;;;;;;;6.45;1.90;;;;;;;22.74;47.09;102925.44;5079228;28;20044;-75
2021/10/07 10:34:09;;;;;;;12.53;2.40;;;;;;;21.40;50.52;102937.03;5092447;28;20052;-77
2021/10/07 10:36:57;;;;;;;7.55;1.83;;;;;;;20.14;57.09;102926.28;5075369;28;20759;-75
2021/10/07 10:39:28;;;;;;;6.15;1.48;;;;;;;19.48;57.84;102931.72;5093325;28;20026;-74
2021/10/07 10:42:04;;;;;;;7.13;1.90;;;;;;;18.66;61.63;102933.06;5092346;28;20090;-74
2021/10/07 10:44:49;;;;;;;12.18;4.25;;;;;;;18.01;65.29;102928.16;5089130;28;20423;-75
2021/10/07 10:47:21;;;;;;;8.55;2.22;;;;;;;17.45;65.68;102933.03;5089971;28;20464;-74
2021/10/07 10:49:52;;;;;;;6.03;1.80;;;;;;;17.08;68.66;102930.81;5090556;28;20020;-74
2021/10/07 10:52:20;;;;;;;;;;;;;;;16.75;70.04;102937.19;5090722;28;20468;-75
2021/10/07 10:54:49;;;;;;;7.50;1.67;;;;;;;16.48;69.19;102930.47;5090651;28;19908;-76
2021/10/07 10:57:26;;;;;;;10.32;2.05;;;;;;;16.37;71.51;102933.16;5089592;28;20043;-76
2021/10/07 11:00:23;;;;;;;10.95;2.00;;;;;;;16.22;72.78;102938.81;5090377;28;20031;-76
2021/10/07 11:02:53;;;;;;;10.85;1.88;;;;;;;16.38;71.17;102935.72;5090381;28;20028;-76
2021/10/07 11:05:27;;;;;;;9.93;2.05;;;;;;;16.65;68.17;102934.41;5089882;28;20034;-76
2021/10/07 11:08:11;;;;;;;9.15;2.25;;;;;;;16.82;67.85;102930.28;5089864;28;20024;-75
2021/10/07 11:10:44;;;;;;;9.05;1.63;;;;;;;17.06;66.89;102931.91;5090270;28;20032;-75
2021/10/07 11:13:15;;;;;;;10.25;2.08;;;;;;;17.26;70.81;102941.00;5089623;28;20058;-74
2021/10/07 11:15:41;;;;;;;9.73;2.22;;;;;;;17.35;67.86;102942.88;5088258;28;20448;-77
2021/10/07 11:18:06;;;;;;;7.93;2.00;;;;;;;17.50;69.91;102940.69;5089145;28;20020;-75